Time;durP1;ratioP1;P1;durP2;ratioP2;P2;SDS_P1;SDS_P2;PMS_P1;PMS_P2;Temp;Humidity;BMP_temperature;BMP_pressure;BME280_temperature;BME280_humidity;BME280_pressure;Samples;Min_cycle;Max_cycle;Signal;HPM_P1;HPM_P2
2021/12/21 00:00:38;;;;;;;38.55;19.85;;;;;;;-3.66;100.00;102627.31;5074634;28;20021;-66
2021/12/21 00:03:04;;;;;;;39.92;20.20;;;;;;;-3.69;100.00;102627.03;5074390;28;20103;-67
2021/12/21 00:05:29;;;;;;;38.25;20.05;;;;;;;-3.68;100.00;102626.28;5074833;28;20064;-69
2021/12/21 00:07:59;;;;;;;42.30;21.48;;;;;;;-3.75;100.00;102623.91;5074615;28;20475;-71
2021/12/21 00:10:27;;;;;;;40.25;20.42;;;;;;;-3.76;100.00;102627.25;5074232;28;20040;-68
2021/12/21 00:18:16;;;;;;;39.40;20.80;;;;;;;-3.82;100.00;102616.34;5074081;28;20032;-67
2021/12/21 00:25:53;;;;;;;40.63;20.50;;;;;;;-3.86;100.00;102616.09;5074519;28;20098;-67
2021/12/21 00:28:18;;;;;;;42.17;21.98;;;;;;;-3.92;100.00;102610.34;5073025;28;20032;-67
2021/12/21 00:30:44;;;;;;;40.60;22.00;;;;;;;-3.91;100.00;102611.25;5073638;28;20028;-67
2021/12/21 00:33:09;;;;;;;38.90;20.52;;;;;;;-3.95;100.00;102604.00;5074352;28;20036;-67
2021/12/21 00:35:35;;;;;;;40.42;20.92;;;;;;;-3.94;100.00;102608.41;5074134;28;20383;-68
2021/12/21 00:38:00;;;;;;;42.58;21.58;;;;;;;-3.91;100.00;102613.84;5073696;28;20028;-67
2021/12/21 00:40:25;;;;;;;41.28;21.23;;;;;;;-3.96;100.00;102595.34;5073955;28;20020;-68
2021/12/21 00:42:51;;;;;;;42.30;21.75;;;;;;;-3.97;100.00;102596.09;5073826;28;20029;-67
2021/12/21 00:45:16;;;;;;;39.63;22.27;;;;;;;-3.98;100.00;102604.59;5073600;28;20032;-66
2021/12/21 00:47:47;;;;;;;40.25;21.17;;;;;;;-3.99;100.00;102600.22;5073960;28;20032;-66
2021/12/21 00:50:16;;;;;;;41.47;21.15;;;;;;;-4.03;100.00;102601.63;5073859;28;20028;-67
2021/12/21 00:52:46;;;;;;;40.78;21.20;;;;;;;-4.06;100.00;102600.44;5073658;28;20013;-67
2021/12/21 00:55:12;;;;;;;40.08;21.58;;;;;;;-4.09;100.00;102594.97;5073630;28;20025;-69
2021/12/21 00:57:37;;;;;;;38.85;20.27;;;;;;;-4.16;100.00;102602.94;5073412;28;20094;-66
2021/12/21 01:00:05;;;;;;;37.92;20.45;;;;;;;-4.14;100.00;102596.25;5073279;28;20031;-67
2021/12/21 01:02:31;;;;;;;38.20;20.02;;;;;;;-4.13;100.00;102593.78;5073358;28;20391;-67
2021/12/21 01:04:57;;;;;;;38.78;20.42;;;;;;;-4.10;100.00;102590.59;5073159;28;20024;-66
2021/12/21 01:07:31;;;;;;;37.15;20.02;;;;;;;-4.12;100.00;102592.09;5073435;28;20043;-67
2021/12/21 01:15:57;;;;;;;38.42;19.60;;;;;;;-4.10;100.00;102598.34;5048751;28;20175;-67
2021/12/21 01:18:30;;;;;;;36.90;18.67;;;;;;;-4.16;100.00;102596.09;5047842;28;20025;-67
2021/12/21 01:31:25;;;;;;;41.90;20.23;;;;;;;-4.25;100.00;102597.81;5050863;28;20041;-67
2021/12/21 01:36:34;;;;;;;42.25;20.55;;;;;;;-4.36;100.00;102594.25;5050906;28;20037;-66
2021/12/21 01:39:25;;;;;;;40.33;20.92;;;;;;;-4.34;100.00;102584.97;5050846;28;20033;-67
2021/12/21 01:49:44;;;;;;;40.67;21.70;;;;;;;-4.43;100.00;102586.69;5049194;28;20071;-67
2021/12/21 01:52:21;;;;;;;42.50;23.20;;;;;;;-4.47;100.00;102582.94;5058727;28;20090;-66
2021/12/21 01:54:48;;;;;;;40.40;22.65;;;;;;;-4.41;100.00;102580.91;5069113;28;20474;-67
2021/12/21 01:57:13;;;;;;;40.42;21.40;;;;;;;-4.51;100.00;102577.31;5072457;28;20048;-67
2021/12/21 01:59:41;;;;;;;39.55;20.90;;;;;;;-4.56;100.00;102574.31;5072638;28;20071;-69
2021/12/21 02:02:08;;;;;;;40.20;20.77;;;;;;;-4.55;100.00;102584.78;5072695;28;20021;-67
2021/12/21 02:04:35;;;;;;;39.95;21.30;;;;;;;-4.53;100.00;102581.44;5072346;28;20031;-68
2021/12/21 02:07:01;;;;;;;43.05;22.08;;;;;;;-4.54;100.00;102575.41;5072451;28;20023;-68
2021/12/21 02:09:34;;;;;;;38.63;21.10;;;;;;;-4.53;100.00;102565.97;5072277;28;20049;-66
2021/12/21 02:12:00;;;;;;;37.97;20.88;;;;;;;-4.51;100.00;102567.00;5072595;28;20016;-66
2021/12/21 02:14:25;;;;;;;37.70;20.00;;;;;;;-4.57;100.00;102568.25;5072345;28;20103;-67
2021/12/21 02:17:12;;;;;;;41.22;21.17;;;;;;;-4.51;100.00;102567.94;5072443;28;20028;-69
2021/12/21 02:19:42;;;;;;;37.28;19.80;;;;;;;-4.60;100.00;102554.16;5071192;28;20038;-66
2021/12/21 02:22:14;;;;;;;38.40;20.48;;;;;;;-4.54;100.00;102559.91;5072246;28;20051;-68
2021/12/21 02:27:43;;;;;;;38.40;20.55;;;;;;;-4.56;100.00;102559.75;5050213;28;20033;-65
2021/12/21 02:30:13;;;;;;;37.42;20.40;;;;;;;-4.59;100.00;102567.22;5050150;28;20575;-66
2021/12/21 02:32:39;;;;;;;37.42;19.80;;;;;;;-4.62;100.00;102564.34;5049815;28;20037;-65
2021/12/21 02:35:05;;;;;;;41.47;21.13;;;;;;;-4.56;100.00;102567.50;5050154;28;20029;-66
2021/12/21 02:37:30;;;;;;;39.30;20.58;;;;;;;-4.51;100.00;102572.16;5049900;28;20049;-66
2021/12/21 02:39:55;;;;;;;38.92;20.20;;;;;;;-4.62;100.00;102572.06;5050020;28;20029;-66
2021/12/21 02:42:21;;;;;;;39.53;20.17;;;;;;;-4.58;100.00;102553.53;5050178;28;20578;-66
2021/12/21 02:44:48;;;;;;;39.83;20.38;;;;;;;-4.63;100.00;102561.59;5045740;28;20045;-65
2021/12/21 02:47:13;;;;;;;38.80;19.98;;;;;;;-4.60;100.00;102556.72;5049779;28;20396;-66
2021/12/21 02:49:38;;;;;;;36.60;19.33;;;;;;;-4.62;100.00;102554.00;5050040;28;20025;-67
2021/12/21 02:52:04;;;;;;;36.75;19.48;;;;;;;-4.67;100.00;102552.69;5050740;28;20116;-66
2021/12/21 02:54:29;;;;;;;39.55;19.85;;;;;;;-4.68;100.00;102555.13;5053544;28;20577;-67
2021/12/21 02:56:55;;;;;;;40.95;20.52;;;;;;;-4.72;100.00;102559.06;5053730;28;20037;-67
2021/12/21 02:59:20;;;;;;;39.25;21.33;;;;;;;-4.69;100.00;102551.63;5053579;28;20032;-66
2021/12/21 03:01:46;;;;;;;43.80;22.45;;;;;;;-4.59;100.00;102549.16;5053481;28;20063;-67
2021/12/21 03:04:11;;;;;;;39.78;21.33;;;;;;;-4.73;100.00;102542.69;5066641;28;20107;-67
2021/12/21 03:12:15;;;;;;;40.45;19.67;;;;;;;-4.81;100.00;102553.06;5050935;28;20037;-67
2021/12/21 03:14:41;;;;;;;39.60;19.88;;;;;;;-4.79;100.00;102555.03;5053209;28;20538;-66
2021/12/21 03:17:08;;;;;;;42.10;20.70;;;;;;;-4.79;100.00;102549.88;5026362;28;20572;-66
2021/12/21 03:19:34;;;;;;;42.15;21.38;;;;;;;-4.73;100.00;102549.53;5043185;28;20037;-66
2021/12/21 03:21:59;;;;;;;41.03;21.20;;;;;;;-4.73;100.00;102549.53;5043648;28;20100;-66
2021/12/21 03:24:25;;;;;;;41.35;20.60;;;;;;;-4.77;100.00;102539.69;5042005;28;20045;-67
2021/12/21 03:26:50;;;;;;;38.90;20.77;;;;;;;-4.73;100.00;102541.81;5053090;28;20381;-66
2021/12/21 03:29:16;;;;;;;39.33;20.55;;;;;;;-4.71;100.00;102553.16;5052983;28;20535;-66
2021/12/21 03:31:42;;;;;;;38.75;19.90;;;;;;;-4.84;100.00;102540.78;5053135;28;20055;-66
2021/12/21 03:34:07;;;;;;;38.63;20.27;;;;;;;-4.80;100.00;102542.00;5042447;28;20483;-66
2021/12/21 03:36:33;;;;;;;37.95;20.13;;;;;;;-4.80;100.00;102542.00;5042954;28;20081;-66
2021/12/21 03:39:08;;;;;;;39.95;20.42;;;;;;;-4.78;100.00;102543.03;5043621;28;20507;-67
2021/12/21 03:41:39;;;;;;;37.47;20.08;;;;;;;-4.83;100.00;102544.28;5042620;28;20030;-66
2021/12/21 03:44:04;;;;;;;40.40;20.25;;;;;;;-4.78;100.00;102537.88;5052572;28;20060;-67
2021/12/21 03:46:32;;;;;;;40.03;19.90;;;;;;;-4.77;100.00;102538.00;5052838;28;20126;-66
2021/12/21 03:48:58;;;;;;;40.05;20.77;;;;;;;-4.82;100.00;102539.28;5062586;28;20072;-66
2021/12/21 03:51:23;;;;;;;38.55;20.05;;;;;;;-4.82;100.00;102536.69;5074692;28;20031;-66
2021/12/21 03:53:49;;;;;;;39.17;20.02;;;;;;;-4.80;100.00;102539.41;5075013;28;20033;-67
2021/12/21 03:56:33;;;;;;;41.10;20.02;;;;;;;-4.78;100.00;102538.75;5074902;28;20032;-66
2021/12/21 03:58:58;;;;;;;41.13;21.08;;;;;;;-4.80;100.00;102536.84;5074680;28;20071;-66
2021/12/21 04:01:24;;;;;;;41.72;21.25;;;;;;;-4.83;100.00;102536.56;5074645;28;20052;-69
2021/12/21 04:03:49;;;;;;;41.63;20.75;;;;;;;-4.83;100.00;102528.81;5074389;28;20395;-67
2021/12/21 04:06:14;;;;;;;42.28;21.42;;;;;;;-4.83;100.00;102531.38;5074427;28;20036;-69
2021/12/21 04:08:40;;;;;;;42.85;21.42;;;;;;;-4.90;100.00;102535.06;5074561;28;20032;-67
2021/12/21 04:11:06;;;;;;;41.92;20.98;;;;;;;-4.93;100.00;102530.50;5074326;28;20045;-67
2021/12/21 04:13:31;;;;;;;39.50;21.27;;;;;;;-4.91;100.00;102529.00;5074236;28;20107;-69
2021/12/21 04:15:59;;;;;;;42.08;21.33;;;;;;;-4.88;100.00;102537.78;5074436;28;20475;-67
2021/12/21 04:18:25;;;;;;;43.78;21.45;;;;;;;-4.94;100.00;102527.78;5074143;28;20017;-66
2021/12/21 04:20:50;;;;;;;40.70;20.02;;;;;;;-4.96;100.00;102534.50;5074430;28;20438;-67
2021/12/21 04:23:16;;;;;;;42.22;21.77;;;;;;;-4.95;100.00;102526.88;5074213;28;20056;-66
2021/12/21 04:25:42;;;;;;;43.28;22.63;;;;;;;-4.96;100.00;102524.16;5074355;28;20031;-66
2021/12/21 04:28:07;;;;;;;41.53;22.00;;;;;;;-4.97;100.00;102523.25;5073868;28;20391;-67
2021/12/21 04:30:32;;;;;;;44.60;22.80;;;;;;;-4.99;100.00;102524.78;5074296;28;20101;-69
2021/12/21 04:32:58;;;;;;;43.45;22.95;;;;;;;-4.93;100.00;102525.34;5073832;28;20020;-67
2021/12/21 04:35:23;;;;;;;44.17;23.08;;;;;;;-4.98;100.00;102533.41;5073861;28;20031;-67
2021/12/21 04:37:55;;;;;;;43.35;23.05;;;;;;;-5.03;100.00;102533.00;5074133;28;20024;-67
2021/12/21 04:40:25;;;;;;;47.60;24.35;;;;;;;-5.00;100.00;102528.13;5073887;28;20016;-66
2021/12/21 04:42:51;;;;;;;49.92;24.73;;;;;;;-5.02;100.00;102518.41;5070191;28;20020;-66
2021/12/21 04:45:17;;;;;;;46.75;24.80;;;;;;;-4.98;100.00;102523.09;5072526;28;20440;-67
2021/12/21 04:47:42;;;;;;;49.85;25.10;;;;;;;-4.96;100.00;102519.91;5073870;28;20047;-67
2021/12/21 04:50:08;;;;;;;48.75;25.63;;;;;;;-4.95;100.00;102521.72;5073778;28;20103;-67
2021/12/21 04:52:33;;;;;;;48.63;25.02;;;;;;;-4.96;100.00;102525.06;5073644;28;20028;-67
2021/12/21 04:54:59;;;;;;;48.90;25.35;;;;;;;-4.99;100.00;102523.88;5073454;28;20169;-66
2021/12/21 04:57:24;;;;;;;49.00;26.08;;;;;;;-4.97;100.00;102523.25;5073461;28;20107;-67
2021/12/21 04:59:50;;;;;;;49.30;25.00;;;;;;;-5.02;100.00;102518.41;5073907;28;20109;-67
2021/12/21 05:02:15;;;;;;;49.83;26.02;;;;;;;-5.04;100.00;102510.53;5073311;28;20028;-68
2021/12/21 05:04:41;;;;;;;46.22;24.65;;;;;;;-5.09;100.00;102515.25;5073235;28;20036;-67
2021/12/21 05:07:06;;;;;;;47.40;26.05;;;;;;;-5.03;100.00;102525.25;5073519;28;20463;-67
2021/12/21 05:09:40;;;;;;;48.40;26.40;;;;;;;-5.11;100.00;102528.75;5073118;28;20130;-68
2021/12/21 05:12:08;;;;;;;48.88;26.88;;;;;;;-5.08;100.00;102526.50;5073034;28;20111;-67
2021/12/21 05:14:33;;;;;;;45.63;26.50;;;;;;;-5.13;100.00;102522.56;5072872;28;20043;-66
2021/12/21 05:16:59;;;;;;;46.85;25.45;;;;;;;-5.15;100.00;102526.69;5073034;28;20387;-66
2021/12/21 05:19:24;;;;;;;47.28;26.00;;;;;;;-5.07;100.00;102523.13;5073094;28;20060;-67
2021/12/21 05:21:50;;;;;;;44.97;25.00;;;;;;;-5.00;100.00;102519.47;5073193;28;20485;-67
2021/12/21 05:24:15;;;;;;;43.85;23.17;;;;;;;-5.07;100.00;102520.56;5105526;28;20036;-67
2021/12/21 05:26:41;;;;;;;43.15;23.70;;;;;;;-5.09;100.00;102523.00;5073049;28;20108;-72
2021/12/21 05:29:06;;;;;;;45.38;24.10;;;;;;;-5.10;100.00;102520.28;5072951;28;20028;-70
2021/12/21 05:31:32;;;;;;;45.53;24.20;;;;;;;-5.12;100.00;102521.81;5072822;28;20025;-69
2021/12/21 05:33:57;;;;;;;45.22;23.40;;;;;;;-5.10;100.00;102530.59;5072887;28;20516;-70
2021/12/21 05:36:23;;;;;;;39.72;22.38;;;;;;;-5.14;100.00;102524.25;5073007;28;20024;-70
2021/12/21 05:38:53;;;;;;;41.85;22.48;;;;;;;-5.13;100.00;102526.03;5068679;28;20036;-69
2021/12/21 05:41:26;;;;;;;48.00;24.88;;;;;;;-5.07;100.00;102520.56;5072803;28;20236;-70
2021/12/21 05:43:52;;;;;;;43.22;23.65;;;;;;;-5.09;100.00;102519.53;5069040;28;20028;-69
2021/12/21 05:46:17;;;;;;;46.78;24.70;;;;;;;-5.11;100.00;102523.59;5072736;28;20383;-71
2021/12/21 05:48:43;;;;;;;46.75;24.60;;;;;;;-5.13;100.00;102530.31;5072650;28;20033;-70
2021/12/21 05:51:08;;;;;;;42.90;22.40;;;;;;;-5.16;100.00;102532.59;5072896;28;20119;-70
2021/12/21 05:53:34;;;;;;;45.85;23.35;;;;;;;-5.17;100.00;102534.28;5072561;28;20025;-70
2021/12/21 05:55:59;;;;;;;40.42;21.90;;;;;;;-5.21;100.00;102532.16;5072518;28;20166;-71
2021/12/21 05:58:24;;;;;;;43.47;23.33;;;;;;;-5.18;100.00;102524.72;5072592;28;20379;-70
2021/12/21 06:00:50;;;;;;;46.40;24.67;;;;;;;-5.22;100.00;102525.19;5072586;28;20483;-70
2021/12/21 06:03:15;;;;;;;44.90;24.40;;;;;;;-5.17;100.00;102515.31;5072558;28;20032;-71
2021/12/21 06:05:41;;;;;;;46.70;26.73;;;;;;;-5.16;100.00;102520.59;5072428;28;20024;-69
2021/12/21 06:08:06;;;;;;;45.25;26.52;;;;;;;-5.12;100.00;102516.66;5072477;28;20487;-70
2021/12/21 06:10:38;;;;;;;44.22;25.58;;;;;;;-5.21;100.00;102521.84;5072472;28;20052;-71
2021/12/21 06:26:17;;;;;;;50.35;28.60;;;;;;;-5.22;100.00;102520.03;5062075;28;20033;-68
2021/12/21 06:28:44;;;;;;;52.05;27.33;;;;;;;-5.25;100.00;102523.22;5057195;28;20028;-68
2021/12/21 06:31:10;;;;;;;45.70;25.17;;;;;;;-5.29;100.00;102518.53;5057094;28;20037;-68
2021/12/21 06:33:36;;;;;;;48.80;25.23;;;;;;;-5.26;100.00;102518.84;5055597;28;20517;-69
2021/12/21 06:36:03;;;;;;;48.50;26.75;;;;;;;-5.30;100.00;102521.88;5060076;28;20044;-69
2021/12/21 06:38:28;;;;;;;48.50;25.80;;;;;;;-5.30;100.00;102519.31;5038772;28;20060;-69
2021/12/21 06:40:54;;;;;;;48.25;26.60;;;;;;;-5.28;100.00;102520.34;5052256;28;20428;-68
2021/12/21 06:43:20;;;;;;;45.47;26.60;;;;;;;-5.26;100.00;102516.28;5057706;28;20414;-69
2021/12/21 06:45:56;;;;;;;47.80;25.83;;;;;;;-5.25;100.00;102524.91;5074236;28;20028;-68
2021/12/21 06:53:37;;;;;;;47.88;25.60;;;;;;;-5.32;100.00;102515.66;5057305;28;20037;-67
2021/12/21 06:56:04;;;;;;;47.83;25.23;;;;;;;-5.27;100.00;102527.34;5069648;28;20064;-68
2021/12/21 06:58:29;;;;;;;45.53;26.48;;;;;;;-5.28;100.00;102519.47;5073139;28;20089;-67
2021/12/21 07:00:55;;;;;;;46.08;26.45;;;;;;;-5.29;100.00;102528.84;5073145;28;20479;-67
2021/12/21 07:03:21;;;;;;;42.95;25.38;;;;;;;-5.27;100.00;102531.59;5073548;28;20059;-69
2021/12/21 07:05:51;;;;;;;45.88;25.48;;;;;;;-5.34;100.00;102534.34;5073505;28;20025;-70
2021/12/21 07:08:22;;;;;;;45.95;25.80;;;;;;;-5.28;100.00;102529.78;5071088;28;20072;-68
2021/12/21 07:11:03;;;;;;;46.45;25.10;;;;;;;-5.32;100.00;102528.56;5073019;28;20541;-68
2021/12/21 07:18:57;;;;;;;47.50;23.73;;;;;;;-5.42;100.00;102536.16;5073288;28;20100;-69
2021/12/21 07:21:22;;;;;;;47.22;23.02;;;;;;;-5.43;100.00;102544.69;5071859;28;20483;-70
2021/12/21 07:23:51;;;;;;;51.38;23.17;;;;;;;-5.45;100.00;102541.03;5072892;28;20025;-69
2021/12/21 07:26:17;;;;;;;48.78;23.60;;;;;;;-5.45;100.00;102541.94;5072947;28;20364;-66
2021/12/21 07:28:42;;;;;;;46.90;22.80;;;;;;;-5.44;100.00;102540.28;5072829;28;20020;-68
2021/12/21 07:31:08;;;;;;;47.00;22.88;;;;;;;-5.39;100.00;102551.03;5072830;28;20486;-71
2021/12/21 07:33:34;;;;;;;45.30;23.27;;;;;;;-5.38;100.00;102538.28;5072390;28;20013;-71
2021/12/21 07:35:59;;;;;;;45.25;24.20;;;;;;;-5.37;100.00;102537.53;5071273;28;20491;-71
2021/12/21 07:38:26;;;;;;;42.95;23.48;;;;;;;-5.37;100.00;102534.97;5072229;28;20031;-71
2021/12/21 07:40:51;;;;;;;45.05;24.13;;;;;;;-5.28;100.00;102537.50;5072422;28;20059;-70
2021/12/21 07:43:17;;;;;;;43.90;24.35;;;;;;;-5.27;100.00;102541.91;5072559;28;20024;-69
2021/12/21 07:45:42;;;;;;;45.95;25.00;;;;;;;-5.30;100.00;102537.34;5072182;28;20033;-70
2021/12/21 07:48:08;;;;;;;45.08;26.63;;;;;;;-5.29;100.00;102552.03;5071470;28;20085;-70
2021/12/21 07:50:33;;;;;;;46.58;25.02;;;;;;;-5.31;100.00;102548.44;5072376;28;20033;-69
2021/12/21 07:53:01;;;;;;;43.85;25.17;;;;;;;-5.33;100.00;102544.81;5072294;28;20025;-70
2021/12/21 07:55:27;;;;;;;48.53;26.73;;;;;;;-5.30;100.00;102545.09;5072258;28;20101;-69
2021/12/21 07:57:52;;;;;;;45.08;25.30;;;;;;;-5.22;100.00;102552.66;5071790;28;20099;-70
2021/12/21 08:00:19;;;;;;;45.60;25.50;;;;;;;-5.26;100.00;102554.03;5072886;28;20021;-71
2021/12/21 08:02:45;;;;;;;43.97;24.75;;;;;;;-5.25;100.00;102556.75;5071751;28;20104;-70
2021/12/21 08:05:10;;;;;;;46.97;25.75;;;;;;;-5.24;100.00;102547.34;5072221;28;20111;-72
2021/12/21 08:07:51;;;;;;;46.35;26.20;;;;;;;-5.15;100.00;102547.31;5071994;28;20020;-70
2021/12/21 08:10:22;;;;;;;46.80;26.92;;;;;;;-4.98;100.00;102560.16;5071263;28;20072;-69
2021/12/21 08:12:48;;;;;;;46.20;26.50;;;;;;;-4.76;100.00;102556.97;5071527;28;20021;-68
2021/12/21 08:15:14;;;;;;;48.13;26.67;;;;;;;-4.78;100.00;102556.81;5072094;28;20024;-70
2021/12/21 08:17:39;;;;;;;46.40;25.45;;;;;;;-4.62;100.00;102559.16;5071829;28;20403;-70
2021/12/21 08:20:05;;;;;;;47.50;25.52;;;;;;;-4.43;100.00;102566.94;5071523;28;20384;-72
2021/12/21 08:22:30;;;;;;;45.92;25.58;;;;;;;-4.26;100.00;102558.19;5070864;28;20028;-69
2021/12/21 08:24:56;;;;;;;45.22;23.88;;;;;;;-4.17;100.00;102557.22;5070513;28;20398;-69
2021/12/21 08:27:21;;;;;;;42.65;22.80;;;;;;;-4.06;100.00;102556.53;5071595;28;20033;-73
2021/12/21 08:29:46;;;;;;;45.28;24.10;;;;;;;-3.89;100.00;102564.13;5071917;28;20032;-69
2021/12/21 08:32:12;;;;;;;43.53;23.35;;;;;;;-3.57;100.00;102558.34;5069987;28;20025;-70
2021/12/21 08:34:38;;;;;;;43.58;22.92;;;;;;;-3.55;100.00;102556.78;5071563;28;20107;-70
2021/12/21 08:37:03;;;;;;;47.92;23.75;;;;;;;-3.41;100.00;102560.56;5070893;28;20107;-68
2021/12/21 08:39:37;;;;;;;41.92;22.58;;;;;;;-3.25;100.00;102557.66;5071027;28;20037;-71
2021/12/21 08:42:03;;;;;;;41.75;23.25;;;;;;;-2.99;100.00;102556.44;5069200;28;20028;-71
2021/12/21 08:44:29;;;;;;;38.30;21.55;;;;;;;-2.88;100.00;102555.69;5071632;28;20036;-72
2021/12/21 08:46:58;;;;;;;42.22;22.88;;;;;;;-2.87;100.00;102564.34;5071281;28;20063;-70
2021/12/21 08:49:24;;;;;;;44.33;22.77;;;;;;;-2.83;100.00;102564.75;5070001;28;20456;-71
2021/12/21 08:51:50;;;;;;;42.17;22.83;;;;;;;-2.83;100.00;102562.16;5070084;28;20028;-71
2021/12/21 08:54:15;;;;;;;41.45;23.05;;;;;;;-2.92;100.00;102566.53;5071338;28;20016;-71
2021/12/21 08:56:41;;;;;;;41.63;22.88;;;;;;;-2.96;100.00;102564.47;5071037;28;20078;-72
2021/12/21 08:59:07;;;;;;;42.45;24.00;;;;;;;-2.83;100.00;102559.56;5071579;28;20024;-71
2021/12/21 09:01:32;;;;;;;44.80;24.35;;;;;;;-2.61;100.00;102560.50;5070781;28;20380;-70
2021/12/21 09:03:57;;;;;;;45.10;25.27;;;;;;;-2.52;100.00;102566.47;5070559;28;20450;-67
2021/12/21 09:06:24;;;;;;;51.17;27.27;;;;;;;-2.43;100.00;102568.91;5072679;28;20040;-71
2021/12/21 09:08:49;;;;;;;45.28;26.75;;;;;;;-2.17;100.00;102574.63;5072799;28;20025;-71
2021/12/21 09:11:14;;;;;;;45.97;27.42;;;;;;;-1.96;100.00;102572.00;5072583;28;20102;-70
2021/12/21 09:13:40;;;;;;;44.95;28.17;;;;;;;-1.88;100.00;102576.13;5072909;28;20020;-72
2021/12/21 09:16:05;;;;;;;46.35;26.50;;;;;;;-1.76;100.00;102564.16;5069390;28;20068;-70
2021/12/21 09:18:30;;;;;;;49.17;29.50;;;;;;;-1.56;100.00;102572.66;5070717;28;20048;-71
2021/12/21 09:20:56;;;;;;;47.22;30.05;;;;;;;-1.45;100.00;102564.06;5070418;28;20069;-69
2021/12/21 09:23:22;;;;;;;46.33;28.85;;;;;;;-1.42;100.00;102566.00;5070705;28;20020;-67
2021/12/21 09:25:47;;;;;;;45.97;28.88;;;;;;;-1.46;100.00;102571.72;5071313;28;20103;-70
2021/12/21 09:28:13;;;;;;;49.47;32.55;;;;;;;-1.19;100.00;102567.84;5070614;28;20056;-71
2021/12/21 09:30:39;;;;;;;47.55;31.30;;;;;;;-0.95;100.00;102568.84;5070340;28;20032;-72
2021/12/21 09:33:04;;;;;;;47.13;30.08;;;;;;;-1.07;100.00;102566.19;5070824;28;20108;-72
2021/12/21 09:35:30;;;;;;;47.10;29.42;;;;;;;-1.18;100.00;102564.47;5070466;28;20024;-71
2021/12/21 09:37:55;;;;;;;46.25;29.67;;;;;;;-1.23;100.00;102558.00;5070657;28;20024;-71
2021/12/21 09:40:27;;;;;;;44.97;28.90;;;;;;;-1.23;100.00;102560.59;5070615;28;20092;-70
2021/12/21 09:42:53;;;;;;;47.28;29.25;;;;;;;-1.01;100.00;102565.78;5069544;28;20043;-70
2021/12/21 09:45:19;;;;;;;45.45;28.65;;;;;;;-0.83;100.00;102561.16;5070377;28;20475;-66
2021/12/21 09:47:45;;;;;;;42.20;27.92;;;;;;;-0.59;100.00;102558.63;5070737;28;20028;-66
2021/12/21 09:50:16;;;;;;;43.53;27.45;;;;;;;-0.57;100.00;102557.97;5069489;28;21539;-70
2021/12/21 09:52:42;;;;;;;45.00;27.92;;;;;;;-0.62;100.00;102559.28;5069289;28;20472;-70
2021/12/21 09:55:11;;;;;;;45.03;28.08;;;;;;;-0.36;100.00;102560.41;5071947;28;20020;-69
2021/12/21 09:57:37;;;;;;;45.17;28.67;;;;;;;0.02;100.00;102557.16;5072499;28;20122;-70
2021/12/21 10:00:11;;;;;;;48.60;26.77;;;;;;;0.37;100.00;102555.38;5072248;28;20523;-70
2021/12/21 10:02:36;;;;;;;41.88;26.48;;;;;;;0.21;100.00;102563.75;5072254;28;20031;-70
2021/12/21 10:05:07;;;;;;;43.17;25.85;;;;;;;0.21;100.00;102553.34;5072662;28;20024;-70
2021/12/21 10:07:34;;;;;;;44.22;27.25;;;;;;;0.45;100.00;102554.22;5072339;28;20028;-69
2021/12/21 10:10:16;;;;;;;40.90;25.90;;;;;;;0.47;100.00;102544.84;5072003;28;20052;-70
2021/12/21 10:12:44;;;;;;;42.53;26.80;;;;;;;0.42;100.00;102535.78;5072408;28;20556;-68
2021/12/21 10:15:12;;;;;;;41.45;26.20;;;;;;;0.71;100.00;102544.78;5072529;28;20045;-69
2021/12/21 10:17:47;;;;;;;37.80;23.08;;;;;;;1.37;100.00;102555.53;5066240;28;20073;-67
2021/12/21 10:20:13;;;;;;;37.30;22.77;;;;;;;1.39;100.00;102550.44;5067446;28;20025;-70
2021/12/21 10:22:49;;;;;;;38.85;22.98;;;;;;;1.41;100.00;102550.53;5064522;28;20016;-67
2021/12/21 10:25:14;;;;;;;37.25;22.77;;;;;;;1.55;100.00;102545.47;5063818;28;20387;-68
2021/12/21 10:27:44;;;;;;;38.38;22.20;;;;;;;1.58;100.00;102539.56;5070832;28;20027;-69
2021/12/21 10:30:10;;;;;;;38.40;22.90;;;;;;;1.96;99.90;102528.19;5072198;28;20032;-69
2021/12/21 10:32:35;;;;;;;37.10;21.67;;;;;;;2.61;96.04;102529.78;5068574;28;20044;-69
2021/12/21 10:35:10;;;;;;;36.50;22.00;;;;;;;2.99;94.04;102533.88;5070200;28;20033;-70
2021/12/21 10:37:38;;;;;;;36.90;21.60;;;;;;;3.82;91.63;102524.91;5069492;28;20028;-70
2021/12/21 10:40:09;;;;;;;35.92;20.50;;;;;;;4.30;85.14;102528.56;5070350;28;20482;-70
2021/12/21 10:43:03;;;;;;;34.33;19.90;;;;;;;5.08;83.78;102528.44;5069732;28;20070;-69
2021/12/21 10:45:36;;;;;;;33.80;18.10;;;;;;;6.25;77.20;102531.84;5069389;28;20032;-69
2021/12/21 10:48:04;;;;;;;33.85;18.25;;;;;;;6.98;71.82;102533.53;5067874;28;20020;-68
2021/12/21 10:50:33;;;;;;;33.05;17.35;;;;;;;7.71;67.74;102518.31;5069935;28;20036;-69
2021/12/21 10:53:00;;;;;;;30.58;16.73;;;;;;;8.12;64.62;102520.88;5069643;28;20029;-71
2021/12/21 10:55:30;;;;;;;31.75;17.00;;;;;;;8.20;62.18;102527.38;5068232;28;20028;-70
2021/12/21 10:58:12;;;;;;;31.77;16.33;;;;;;;8.23;63.49;102524.88;5068920;28;20077;-68
2021/12/21 11:00:41;;;;;;;31.27;16.08;;;;;;;8.70;60.02;102517.97;5068199;28;20112;-71
2021/12/21 11:03:07;;;;;;;30.67;15.80;;;;;;;8.79;59.45;102520.06;5069705;28;20111;-68
2021/12/21 11:05:33;;;;;;;31.63;16.27;;;;;;;9.30;58.33;102521.94;5069760;28;20476;-71
2021/12/21 11:08:14;;;;;;;31.70;15.45;;;;;;;9.55;56.46;102518.47;5069019;28;20166;-71
2021/12/21 11:10:41;;;;;;;29.67;14.95;;;;;;;10.15;53.65;102518.66;5069201;28;20589;-71
2021/12/21 11:13:12;;;;;;;29.83;14.63;;;;;;;10.60;53.05;102515.72;5070952;28;20391;-70
2021/12/21 11:15:52;;;;;;;29.73;14.85;;;;;;;10.93;51.61;102515.84;5073582;28;20142;-70
2021/12/21 11:18:18;;;;;;;28.25;13.98;;;;;;;11.25;47.92;102512.34;5071290;28;20025;-71
2021/12/21 11:20:48;;;;;;;26.58;13.90;;;;;;;11.40;47.69;102517.16;5073096;28;20107;-67
2021/12/21 11:23:15;;;;;;;27.65;14.50;;;;;;;11.69;47.17;102517.94;5071908;28;20410;-71
2021/12/21 11:25:42;;;;;;;27.25;13.90;;;;;;;12.32;45.87;102508.03;5073636;28;20052;-69
2021/12/21 11:28:13;;;;;;;28.38;14.50;;;;;;;12.77;45.53;102503.75;5072794;28;20035;-68
2021/12/21 11:30:40;;;;;;;27.05;13.75;;;;;;;13.31;44.33;102496.88;5073010;28;20032;-69
2021/12/21 11:33:07;;;;;;;29.85;14.15;;;;;;;13.38;43.22;102490.84;5107656;28;20028;-69
2021/12/21 11:38:03;;;;;;;25.67;13.20;;;;;;;12.85;41.90;102473.84;5074639;28;20037;-68
2021/12/21 11:40:35;;;;;;;27.67;13.60;;;;;;;12.78;42.40;102458.66;5074711;28;20032;-69
2021/12/21 11:43:23;;;;;;;28.65;13.00;;;;;;;12.80;45.27;102456.03;5075006;28;20024;-67
2021/12/21 11:46:06;;;;;;;25.85;13.05;;;;;;;12.96;44.82;102467.88;5071261;28;20475;-68
2021/12/21 11:48:44;;;;;;;25.15;12.43;;;;;;;13.80;42.20;102465.03;5073306;28;20058;-70
2021/12/21 11:51:11;;;;;;;27.77;12.30;;;;;;;13.73;40.29;102464.94;5074699;28;20040;-70
2021/12/21 11:53:37;;;;;;;25.73;12.43;;;;;;;14.86;39.45;102460.38;5074872;28;20437;-67
2021/12/21 11:56:05;;;;;;;25.40;13.00;;;;;;;14.31;38.73;102461.38;5074690;28;20112;-70
2021/12/21 11:58:36;;;;;;;25.90;12.45;;;;;;;14.47;38.61;102462.50;5074416;28;20079;-69
2021/12/21 12:01:12;;;;;;;27.92;12.98;;;;;;;14.68;39.66;102461.00;5074473;28;20060;-68
2021/12/21 12:03:39;;;;;;;25.80;12.27;;;;;;;15.00;37.67;102456.09;5074256;28;20028;-69
2021/12/21 12:06:12;;;;;;;25.67;11.13;;;;;;;14.80;37.65;102451.41;5074566;28;20032;-70
2021/12/21 12:08:49;;;;;;;24.60;11.23;;;;;;;14.91;39.28;102451.56;5074689;28;20017;-69
2021/12/21 12:11:28;;;;;;;25.63;11.20;;;;;;;15.11;39.94;102450.88;5074363;28;20037;-70
2021/12/21 12:14:04;;;;;;;25.50;11.10;;;;;;;15.21;38.25;102449.22;5067375;28;20407;-69
2021/12/21 12:17:06;;;;;;;25.30;10.80;;;;;;;15.10;38.38;102441.09;5071896;28;20083;-68
2021/12/21 12:19:33;;;;;;;24.63;10.98;;;;;;;14.51;37.48;102432.41;5029388;28;20077;-66